Metar Aviation Weather Data EIDW

16°C Temp
5°C Dewpoint
% Humidity
Temperature
21 KM/H
13 MPH
11 KTS
180°
Due South

Wind Speed
Clear
Conditions
Pressure 1010.92 (hPa) - 29.85 (in)
Visibility 6.2 (mi) - 10 (km)

Current Conditions
EIDW
Metar :EIDW 212000Z 18011KT 140V210 CAVOK 16/05 Q1011 NOSIG
Sun 21st April 21:00 pm

  Metar Aviation API Data Provided by https://www.checkwx.com/ PHP scripts by weather34.com ©2019